createdAt,value
2022-11-24T00:01:26.457Z,100328.59
2022-11-24T00:04:00.742Z,100327.78
2022-11-24T00:06:29.351Z,100326.38
2022-11-24T00:08:57.015Z,100327.78
2022-11-24T00:11:33.871Z,100333.69
2022-11-24T00:14:01.907Z,100327.59
2022-11-24T00:16:32.246Z,100332.66
2022-11-24T00:19:02.182Z,100330.84
2022-11-24T00:21:31.231Z,100332.47
2022-11-24T00:23:58.677Z,100336.75
2022-11-24T00:26:35.049Z,100332.66
2022-11-24T00:29:06.481Z,100334.66
2022-11-24T00:31:40.538Z,100336.34
2022-11-24T00:34:13.088Z,100323.47
2022-11-24T00:36:41.431Z,100328.78
2022-11-24T00:39:14.968Z,100327.75
2022-11-24T00:41:43.719Z,100334.69
2022-11-24T00:44:10.622Z,100338.97
2022-11-24T00:46:37.851Z,100339.56
2022-11-24T00:49:08.450Z,100329.78
2022-11-24T00:51:35.532Z,100335.91
2022-11-24T00:54:02.837Z,100331.00
2022-11-24T00:56:30.518Z,100332.44
2022-11-24T00:58:57.408Z,100340.16
2022-11-24T01:01:27.691Z,100338.34
2022-11-24T01:03:56.035Z,100335.69
2022-11-24T01:06:25.954Z,100335.06
2022-11-24T01:08:53.660Z,100328.16
2022-11-24T01:11:25.075Z,100327.75
2022-11-24T01:13:57.407Z,100328.97
2022-11-24T01:16:32.475Z,100331.00
2022-11-24T01:19:00.296Z,100331.81
2022-11-24T01:21:27.315Z,100329.38
2022-11-24T01:23:54.443Z,100335.69
2022-11-24T01:26:22.846Z,100347.72
2022-11-24T01:28:55.439Z,100351.59
2022-11-24T01:31:23.685Z,100349.97
2022-11-24T01:33:50.850Z,100352.63
2022-11-24T01:36:18.485Z,100370.38
2022-11-24T01:38:45.425Z,100355.69
2022-11-24T01:41:21.552Z,100352.41
2022-11-24T01:43:49.722Z,100357.09
2022-11-24T01:47:01.090Z,100357.09
2022-11-24T01:49:41.894Z,100359.16
2022-11-24T01:52:16.367Z,100340.81
2022-11-24T01:54:55.031Z,100338.38
2022-11-24T01:57:27.842Z,100328.78
2022-11-24T02:00:04.210Z,100334.69
2022-11-24T02:02:43.288Z,100343.47
2022-11-24T02:05:43.505Z,100347.94
2022-11-24T02:08:30.987Z,100347.75
2022-11-24T02:10:58.109Z,100351.41
2022-11-24T02:13:25.419Z,100373.63
2022-11-24T02:15:54.251Z,100390.13
2022-11-24T02:18:21.384Z,100372.63
2022-11-24T02:20:48.485Z,100380.34
2022-11-24T02:23:33.751Z,100383.81
2022-11-24T02:26:31.685Z,100388.69
2022-11-24T02:28:59.863Z,100387.06
2022-11-24T02:31:26.825Z,100386.25
2022-11-24T02:33:54.844Z,100379.34
2022-11-24T02:36:21.974Z,100390.34
2022-11-24T02:38:48.921Z,100384.22
2022-11-24T02:41:20.571Z,100390.56
2022-11-24T02:43:55.616Z,100391.56
2022-11-24T02:46:22.984Z,100394.84
2022-11-24T02:48:49.938Z,100398.50
2022-11-24T02:51:17.801Z,100393.19
2022-11-24T02:53:44.674Z,100398.50
2022-11-24T02:56:12.802Z,100392.59
2022-11-24T02:58:39.945Z,100403.78
2022-11-24T03:01:07.200Z,100385.66
2022-11-24T03:03:34.217Z,100388.09
2022-11-24T03:06:01.350Z,100395.25
2022-11-24T03:08:28.202Z,100398.50
2022-11-24T03:10:55.579Z,100396.47
2022-11-24T03:13:22.711Z,100389.94
2022-11-24T03:15:49.733Z,100393.41
2022-11-24T03:18:16.647Z,100390.13
2022-11-24T03:20:44.367Z,100376.06
2022-11-24T03:23:11.314Z,100378.53
2022-11-24T03:25:38.578Z,100360.19
2022-11-24T03:28:06.317Z,100376.06
2022-11-24T03:30:33.315Z,100386.88
2022-11-24T03:33:00.217Z,100406.44
2022-11-24T03:35:27.465Z,100402.16
2022-11-24T03:37:54.397Z,100394.22
2022-11-24T03:40:21.391Z,100411.94
2022-11-24T03:42:48.310Z,100394.03
2022-11-24T03:45:45.382Z,100406.84
2022-11-24T03:48:02.570Z,100414.41
2022-11-24T03:50:29.486Z,100409.09
2022-11-24T03:52:56.720Z,100416.84
2022-11-24T03:55:24.071Z,100434.56
2022-11-24T03:57:51.071Z,100417.47
2022-11-24T04:00:18.393Z,100423.38
2022-11-24T04:02:45.526Z,100422.34
2022-11-24T04:05:12.462Z,100423.16
2022-11-24T04:07:39.849Z,100423.97
2022-11-24T04:10:08.054Z,100429.06
2022-11-24T04:12:46.782Z,100417.06
2022-11-24T04:15:19.160Z,100435.78
2022-11-24T04:17:48.015Z,100431.94
2022-11-24T04:20:16.343Z,100427.84
2022-11-24T04:22:44.151Z,100428.06
2022-11-24T04:25:11.665Z,100433.16
2022-11-24T04:27:39.248Z,100436.63
2022-11-24T04:30:07.969Z,100437.03
2022-11-24T04:32:35.688Z,100443.34
2022-11-24T04:35:03.615Z,100439.69
2022-11-24T04:37:30.785Z,100426.03
2022-11-24T04:39:57.675Z,100439.28
2022-11-24T04:42:24.637Z,100442.72
2022-11-24T04:44:51.685Z,100448.03
2022-11-24T04:47:23.225Z,100441.72
2022-11-24T04:49:51.286Z,100447.22
2022-11-24T04:52:21.211Z,100437.03
2022-11-24T04:54:48.828Z,100440.69
2022-11-24T04:57:25.709Z,100450.28
2022-11-24T04:59:54.457Z,100459.03
2022-11-24T05:02:22.346Z,100466.16
2022-11-24T05:04:49.753Z,100460.84
2022-11-24T05:07:19.315Z,100480.19
2022-11-24T05:10:06.587Z,100490.78
2022-11-24T05:12:33.685Z,100482.84
2022-11-24T05:15:02.479Z,100489.72
2022-11-24T05:17:32.746Z,100482.16
2022-11-24T05:19:59.847Z,100484.19
2022-11-24T05:22:29.274Z,100501.94
2022-11-24T05:24:56.902Z,100501.13
2022-11-24T05:27:24.070Z,100500.09
2022-11-24T05:29:51.043Z,100486.88
2022-11-24T05:32:18.217Z,100502.13
2022-11-24T05:34:45.138Z,100501.78
2022-11-24T05:37:12.088Z,100499.28
2022-11-24T05:39:39.078Z,100506.03
2022-11-24T05:42:25.817Z,100507.28
2022-11-24T05:44:53.493Z,100512.56
2022-11-24T05:47:21.011Z,100522.94
2022-11-24T05:49:48.150Z,100506.25
2022-11-24T05:52:15.859Z,100520.50
2022-11-24T05:54:42.979Z,100510.75
2022-11-24T05:57:09.876Z,100525.19
2022-11-24T05:59:37.336Z,100525.59
2022-11-24T06:02:04.575Z,100528.25
2022-11-24T06:04:32.397Z,100524.59
2022-11-24T06:06:59.858Z,100517.66
2022-11-24T06:09:26.975Z,100514.81
2022-11-24T06:11:53.813Z,100534.78
2022-11-24T06:14:21.132Z,100541.50
2022-11-24T06:16:48.012Z,100540.69
2022-11-24T06:19:15.298Z,100534.38
2022-11-24T06:21:42.268Z,100541.72
2022-11-24T06:24:09.316Z,100551.88
2022-11-24T06:26:36.165Z,100556.78
2022-11-24T06:29:03.457Z,100561.88
2022-11-24T06:31:30.412Z,100567.16
2022-11-24T06:33:57.481Z,100565.94
2022-11-24T06:36:25.597Z,100561.66
2022-11-24T06:38:52.948Z,100567.75
2022-11-24T06:41:20.054Z,100568.78
2022-11-24T06:43:48.127Z,100575.31
2022-11-24T06:46:15.514Z,100574.50
2022-11-24T06:48:42.529Z,100572.25
2022-11-24T06:51:13.282Z,100575.72
2022-11-24T06:53:41.037Z,100575.31
2022-11-24T06:56:16.131Z,100569.22
2022-11-24T06:58:50.516Z,100576.34
2022-11-24T07:01:21.479Z,100581.44
2022-11-24T07:03:50.500Z,100586.34
2022-11-24T07:06:18.999Z,100589.81
2022-11-24T07:08:46.339Z,100593.47
2022-11-24T07:11:17.447Z,100585.94
2022-11-24T07:13:45.866Z,100595.91
2022-11-24T07:16:22.860Z,100602.41
2022-11-24T07:18:52.287Z,100597.53
2022-11-24T07:21:20.887Z,100593.06
2022-11-24T07:23:53.092Z,100597.75
2022-11-24T07:26:20.827Z,100605.31
2022-11-24T07:28:47.912Z,100608.56
2022-11-24T07:31:21.526Z,100601.22
2022-11-24T07:33:50.401Z,100606.13
2022-11-24T07:36:17.554Z,100616.09
2022-11-24T07:38:45.450Z,100604.09
2022-11-24T07:41:14.571Z,100610.81
2022-11-24T07:43:41.961Z,100610.41
2022-11-24T07:46:14.054Z,100616.94
2022-11-24T07:48:41.353Z,100622.44
2022-11-24T07:51:09.645Z,100627.34
2022-11-24T07:53:37.780Z,100625.31
2022-11-24T07:56:06.318Z,100628.97
2022-11-24T07:58:36.485Z,100631.84
2022-11-24T08:01:18.288Z,100632.25
2022-11-24T08:03:46.887Z,100633.47
2022-11-24T08:06:38.645Z,100632.91
2022-11-24T08:09:02.379Z,100633.94
2022-11-24T08:11:31.506Z,100624.38
2022-11-24T08:13:58.856Z,100622.53
2022-11-24T08:16:25.909Z,100624.59
2022-11-24T08:18:55.624Z,100628.88
2022-11-24T08:21:24.990Z,100617.88
2022-11-24T08:23:57.189Z,100631.53
2022-11-24T08:26:25.745Z,100635.22
2022-11-24T08:28:58.212Z,100632.97
2022-11-24T08:31:32.622Z,100636.03
2022-11-24T08:34:00.744Z,100641.34
2022-11-24T08:36:27.872Z,100639.09
2022-11-24T08:38:57.290Z,100645.19
2022-11-24T08:41:26.234Z,100642.97
2022-11-24T08:43:54.781Z,100656.41
2022-11-24T08:46:22.169Z,100646.22
2022-11-24T08:48:51.676Z,100651.13
2022-11-24T08:51:23.035Z,100654.38
2022-11-24T08:54:00.374Z,100650.50
2022-11-24T08:56:29.911Z,100644.59
2022-11-24T08:58:57.491Z,100647.84
2022-11-24T09:01:25.517Z,100659.47
2022-11-24T09:03:52.744Z,100660.91
2022-11-24T09:06:25.057Z,100659.47
2022-11-24T09:08:54.734Z,100659.28
2022-11-24T09:11:22.241Z,100653.56
2022-11-24T09:13:49.797Z,100652.31
2022-11-24T09:16:24.658Z,100659.66
2022-11-24T09:18:58.076Z,100654.16
2022-11-24T09:21:25.449Z,100664.97
2022-11-24T09:23:54.123Z,100665.56
2022-11-24T09:26:30.778Z,100674.75
2022-11-24T09:28:58.682Z,100682.31
2022-11-24T09:31:29.137Z,100691.09
2022-11-24T09:33:57.115Z,100690.66
2022-11-24T09:36:24.826Z,100702.94
2022-11-24T09:38:52.296Z,100686.81
2022-11-24T09:42:07.859Z,100687.81
2022-11-24T09:44:46.812Z,100684.94
2022-11-24T09:47:37.721Z,100679.00
2022-11-24T09:50:13.744Z,100689.81
2022-11-24T09:53:03.991Z,100693.25
2022-11-24T09:55:43.642Z,100686.28
2022-11-24T09:58:48.567Z,100697.09
2022-11-24T10:01:24.952Z,100693.59
2022-11-24T10:03:53.802Z,100701.53
2022-11-24T10:06:26.498Z,100710.53
2022-11-24T10:09:36.589Z,100710.88
2022-11-24T10:12:28.221Z,100707.59
2022-11-24T10:15:25.740Z,100707.38
2022-11-24T10:18:19.905Z,100702.03
2022-11-24T10:21:14.605Z,100713.66
2022-11-24T10:24:33.880Z,100714.41
2022-11-24T10:27:20.312Z,100708.00
2022-11-24T10:29:52.112Z,100709.38
2022-11-24T10:32:26.408Z,100714.50
2022-11-24T10:34:55.344Z,100707.28
2022-11-24T10:37:41.168Z,100698.00
2022-11-24T10:40:48.577Z,100699.56
2022-11-24T10:43:11.262Z,100708.19
2022-11-24T10:45:39.624Z,100702.91
2022-11-24T10:48:19.142Z,100691.84
2022-11-24T10:50:46.180Z,100707.34
2022-11-24T10:53:29.778Z,100709.47
2022-11-24T10:55:56.667Z,100704.94
2022-11-24T10:58:34.301Z,100696.38
2022-11-24T11:01:13.914Z,100699.13
2022-11-24T11:03:52.468Z,100691.84
2022-11-24T11:06:31.503Z,100702.38
2022-11-24T11:09:07.394Z,100696.38
2022-11-24T11:11:39.944Z,100694.66
2022-11-24T11:14:10.540Z,100701.75
2022-11-24T11:16:56.166Z,100713.03
2022-11-24T11:19:56.956Z,100712.00
2022-11-24T11:22:30.116Z,100718.41
2022-11-24T11:25:24.907Z,100724.31
2022-11-24T11:28:23.679Z,100715.13
2022-11-24T11:31:19.672Z,100711.31
2022-11-24T11:34:15.976Z,100710.41
2022-11-24T11:36:51.821Z,100695.88
2022-11-24T11:39:25.612Z,100701.19
2022-11-24T11:42:53.793Z,100703.75
2022-11-24T11:45:24.453Z,100700.94
2022-11-24T11:48:03.362Z,100698.47
2022-11-24T11:53:47.161Z,100702.44
2022-11-24T11:56:40.457Z,100708.03
2022-11-24T11:59:31.650Z,100700.00
2022-11-24T12:02:29.112Z,100703.16
2022-11-24T12:05:10.755Z,100709.34
2022-11-24T12:08:16.001Z,100704.56
2022-11-24T12:11:22.230Z,100704.56
2022-11-24T12:14:26.248Z,100700.97
2022-11-24T12:17:14.945Z,100709.59
2022-11-24T12:20:03.064Z,100715.50
2022-11-24T12:22:42.926Z,100708.16
2022-11-24T12:25:26.787Z,100696.09
2022-11-24T12:28:18.269Z,100691.41
2022-11-24T12:31:13.957Z,100703.31
2022-11-24T12:34:01.722Z,100696.78
2022-11-24T12:37:21.899Z,100700.72
2022-11-24T12:40:16.303Z,100697.16
2022-11-24T12:43:13.329Z,100692.00
2022-11-24T12:45:53.353Z,100691.97
2022-11-24T12:49:00.241Z,100699.59
2022-11-24T12:51:36.221Z,100701.03
2022-11-24T12:54:08.660Z,100714.81
2022-11-24T12:56:50.930Z,100705.94
2022-11-24T12:59:45.578Z,100704.59
2022-11-24T13:02:43.114Z,100712.88
2022-11-24T13:06:22.019Z,100722.16
2022-11-24T13:08:50.006Z,100721.88
2022-11-24T13:11:23.341Z,100729.84
2022-11-24T13:14:22.561Z,100733.94
2022-11-24T13:19:45.047Z,100719.72
2022-11-24T13:22:26.052Z,100733.53
2022-11-24T13:25:31.511Z,100740.03
2022-11-24T13:28:04.299Z,100735.28
2022-11-24T13:30:34.339Z,100741.06
2022-11-24T13:33:16.772Z,100740.94
2022-11-24T13:36:02.676Z,100750.38
2022-11-24T13:39:03.642Z,100747.97
2022-11-24T13:41:33.468Z,100753.34
2022-11-24T13:44:15.539Z,100752.31
2022-11-24T13:47:06.899Z,100754.13
2022-11-24T13:49:42.717Z,100761.88
2022-11-24T13:52:38.662Z,100754.72
2022-11-24T13:55:12.009Z,100765.88
2022-11-24T13:57:50.677Z,100776.53
2022-11-24T14:01:08.756Z,100771.84
2022-11-24T14:06:53.423Z,100782.72
2022-11-24T14:09:27.153Z,100783.97
2022-11-24T14:12:00.598Z,100788.16
2022-11-24T14:14:28.592Z,100791.63
2022-11-24T14:17:15.907Z,100791.63
2022-11-24T14:19:48.981Z,100816.09
2022-11-24T14:22:31.413Z,100809.56
2022-11-24T14:25:00.949Z,100820.31
2022-11-24T14:27:38.969Z,100824.44
2022-11-24T14:30:14.643Z,100830.38
2022-11-24T14:32:53.794Z,100824.22
2022-11-24T14:35:26.709Z,100824.75
2022-11-24T14:37:54.106Z,100828.28
2022-11-24T14:40:50.317Z,100823.47
2022-11-24T14:43:21.524Z,100829.69
2022-11-24T14:45:56.523Z,100836.72
2022-11-24T14:48:29.153Z,100847.03
2022-11-24T14:51:29.415Z,100841.75
2022-11-24T14:54:02.340Z,100842.28
2022-11-24T14:56:36.589Z,100843.38
2022-11-24T14:59:20.996Z,100842.63
2022-11-24T15:01:48.080Z,100843.28
2022-11-24T15:07:26.831Z,100845.44
2022-11-24T15:10:00.307Z,100855.94
2022-11-24T15:12:41.614Z,100856.56
2022-11-24T15:15:15.190Z,100859.06
2022-11-24T15:18:01.584Z,100858.91
2022-11-24T15:20:42.427Z,100858.13
2022-11-24T15:23:31.840Z,100867.59
2022-11-24T15:26:01.724Z,100878.06
2022-11-24T15:28:31.218Z,100880.97
2022-11-24T15:31:25.218Z,100878.50
2022-11-24T15:33:52.202Z,100883.44
2022-11-24T15:36:20.676Z,100881.44
2022-11-24T15:38:48.663Z,100875.72
2022-11-24T15:41:20.811Z,100880.44
2022-11-24T15:43:48.333Z,100894.19
2022-11-24T15:46:16.046Z,100898.91
2022-11-24T15:48:43.089Z,100896.66
2022-11-24T15:51:15.183Z,100900.97
2022-11-24T15:53:48.534Z,100910.19
2022-11-24T15:56:42.100Z,100897.31
2022-11-24T15:59:20.674Z,100897.94
2022-11-24T16:01:49.852Z,100896.91
2022-11-24T16:04:17.034Z,100900.00
2022-11-24T16:06:44.152Z,100902.06
2022-11-24T16:09:15.191Z,100907.38
2022-11-24T16:11:42.182Z,100896.13
2022-11-24T16:14:09.036Z,100912.31
2022-11-24T16:16:36.333Z,100916.81
2022-11-24T16:19:03.623Z,100908.00
2022-11-24T16:21:30.725Z,100913.34
2022-11-24T16:23:57.670Z,100912.31
2022-11-24T16:26:24.585Z,100919.47
2022-11-24T16:28:51.498Z,100919.69
2022-11-24T16:31:19.848Z,100916.63
2022-11-24T16:33:46.996Z,100916.22
2022-11-24T16:36:14.534Z,100913.56
2022-11-24T16:38:41.712Z,100927.91
2022-11-24T16:41:10.339Z,100926.88
2022-11-24T16:43:37.909Z,100918.28
2022-11-24T16:46:24.566Z,100929.13
2022-11-24T16:48:54.971Z,100928.31
2022-11-24T16:51:23.770Z,100927.47
2022-11-24T16:54:01.690Z,100933.41
2022-11-24T16:56:30.082Z,100928.69
2022-11-24T16:58:56.987Z,100924.78
2022-11-24T17:01:26.128Z,100931.75
2022-11-24T17:03:53.201Z,100926.22
2022-11-24T17:06:20.219Z,100938.91
2022-11-24T17:08:47.882Z,100927.47
2022-11-24T17:11:22.498Z,100926.84
2022-11-24T17:13:50.595Z,100936.28
2022-11-24T17:16:23.196Z,100941.59
2022-11-24T17:18:50.629Z,100944.88
2022-11-24T17:21:20.739Z,100936.06
2022-11-24T17:23:48.044Z,100927.09
2022-11-24T17:26:17.308Z,100937.34
2022-11-24T17:28:44.697Z,100940.22
2022-11-24T17:31:23.522Z,100943.91
2022-11-24T17:33:53.053Z,100940.22
2022-11-24T17:36:20.447Z,100935.94
2022-11-24T17:38:49.550Z,100952.53
2022-11-24T17:41:17.936Z,100953.34
2022-11-24T17:43:53.253Z,100956.03
2022-11-24T17:46:20.529Z,100964.22
2022-11-24T17:48:47.776Z,100955.00
2022-11-24T17:51:21.736Z,100964.63
2022-11-24T17:53:51.946Z,100969.72
2022-11-24T17:56:25.710Z,100970.34
2022-11-24T17:58:58.384Z,100967.91
2022-11-24T18:01:28.779Z,100963.38
2022-11-24T18:03:56.168Z,100965.22
2022-11-24T18:06:27.847Z,100971.56
2022-11-24T18:08:57.606Z,100966.47
2022-11-24T18:11:31.803Z,100964.63
2022-11-24T18:14:02.540Z,100956.25
2022-11-24T18:16:32.316Z,100968.09
2022-11-24T18:19:10.419Z,100964.84
2022-11-24T18:21:40.412Z,100964.84
2022-11-24T18:24:09.700Z,100959.91
2022-11-24T18:26:37.269Z,100964.81
2022-11-24T18:29:04.666Z,100970.34
2022-11-24T18:31:34.409Z,100964.84
2022-11-24T18:34:02.085Z,100966.47
2022-11-24T18:36:30.821Z,100967.28
2022-11-24T18:39:02.627Z,100976.47
2022-11-24T18:41:29.599Z,100975.66
2022-11-24T18:43:56.495Z,100975.25
2022-11-24T18:46:23.828Z,100986.50
2022-11-24T18:48:52.958Z,100989.78
2022-11-24T18:51:20.218Z,100982.63
2022-11-24T18:53:51.982Z,100990.19
2022-11-24T18:56:18.972Z,100991.81
2022-11-24T18:58:46.113Z,100990.78
2022-11-24T19:01:18.419Z,100998.16
2022-11-24T19:03:50.821Z,101001.00
2022-11-24T19:06:21.323Z,101001.22
2022-11-24T19:08:48.930Z,100995.50
2022-11-24T19:11:32.700Z,100993.03
2022-11-24T19:14:00.895Z,100989.16
2022-11-24T19:16:28.238Z,100989.38
2022-11-24T19:19:03.163Z,100984.47
2022-11-24T19:21:40.054Z,100990.41
2022-11-24T19:24:13.253Z,100995.47
2022-11-24T19:26:40.710Z,101010.19
2022-11-24T19:29:08.651Z,101011.84
2022-11-24T19:31:38.497Z,101002.44
2022-11-24T19:34:07.849Z,101006.50
2022-11-24T19:36:34.878Z,101006.50
2022-11-24T19:39:05.251Z,101007.72
2022-11-24T19:41:33.373Z,101005.69
2022-11-24T19:44:03.209Z,101016.91
2022-11-24T19:46:30.558Z,101015.28
2022-11-24T19:49:01.307Z,101017.94
2022-11-24T19:51:38.526Z,101016.69
2022-11-24T19:54:08.132Z,101017.72
2022-11-24T19:56:37.246Z,101026.72
2022-11-24T19:59:06.190Z,101027.13
2022-11-24T20:01:39.898Z,101031.00
2022-11-24T20:04:13.831Z,101041.63
2022-11-24T20:06:44.258Z,101038.97
2022-11-24T20:09:14.663Z,101043.25
2022-11-24T20:11:42.055Z,101052.84
2022-11-24T20:14:12.604Z,101039.97
2022-11-24T20:16:39.802Z,101041.22
2022-11-24T20:19:11.767Z,101036.31
2022-11-24T20:21:40.142Z,101045.09
2022-11-24T20:24:24.749Z,101041.81
2022-11-24T20:26:58.325Z,101042.84
2022-11-24T20:29:25.865Z,101048.16
2022-11-24T20:31:55.082Z,101058.78
2022-11-24T20:34:23.703Z,101058.78
2022-11-24T20:36:52.715Z,101058.34
2022-11-24T20:39:26.576Z,101067.53
2022-11-24T20:41:55.653Z,101059.75
2022-11-24T20:44:26.479Z,101065.69
2022-11-24T20:46:55.829Z,101070.16
2022-11-24T20:49:23.192Z,101068.50
2022-11-24T20:51:54.625Z,101074.19
2022-11-24T20:54:22.346Z,101067.19
2022-11-24T20:56:49.529Z,101065.31
2022-11-24T20:59:22.161Z,101059.38
2022-11-24T21:01:50.776Z,101054.66
2022-11-24T21:04:22.661Z,101063.47
2022-11-24T21:06:50.264Z,101062.47
2022-11-24T21:09:17.422Z,101058.78
2022-11-24T21:11:44.997Z,101058.59
2022-11-24T21:14:12.689Z,101060.22
2022-11-24T21:16:41.978Z,101067.00
2022-11-24T21:19:14.740Z,101063.50
2022-11-24T21:21:42.720Z,101073.31
2022-11-24T21:24:19.107Z,101067.00
2022-11-24T21:26:51.638Z,101073.31
2022-11-24T21:29:22.243Z,101077.19
2022-11-24T21:31:49.596Z,101077.44
2022-11-24T21:34:18.568Z,101075.97
2022-11-24T21:36:46.596Z,101080.25
2022-11-24T21:39:16.410Z,101079.84
2022-11-24T21:41:44.001Z,101091.47
2022-11-24T21:44:12.938Z,101086.34
2022-11-24T21:46:45.940Z,101096.56
2022-11-24T21:49:18.395Z,101096.56
2022-11-24T21:51:45.266Z,101099.41
2022-11-24T21:54:12.264Z,101099.78
2022-11-24T21:56:39.185Z,101097.13
2022-11-24T21:59:08.763Z,101099.78
2022-11-24T22:01:35.680Z,101095.31
2022-11-24T22:04:03.120Z,101104.28
2022-11-24T22:06:31.977Z,101106.31
2022-11-24T22:08:59.070Z,101108.97
2022-11-24T22:11:27.001Z,101115.09
2022-11-24T22:13:54.170Z,101110.59
2022-11-24T22:16:23.571Z,101098.16
2022-11-24T22:18:51.447Z,101102.06
2022-11-24T22:21:29.860Z,101106.97
2022-11-24T22:23:57.158Z,101111.25
2022-11-24T22:26:24.330Z,101103.09
2022-11-24T22:28:52.867Z,101097.59
2022-11-24T22:31:23.262Z,101102.31
2022-11-24T22:33:51.442Z,101122.38
2022-11-24T22:36:23.805Z,101112.94
2022-11-24T22:38:59.352Z,101114.84
2022-11-24T22:41:26.538Z,101108.09
2022-11-24T22:43:54.205Z,101119.56
2022-11-24T22:46:25.330Z,101118.34
2022-11-24T22:48:54.618Z,101109.16
2022-11-24T22:51:28.335Z,101123.69
2022-11-24T22:53:58.551Z,101121.03
2022-11-24T22:56:27.843Z,101126.75
2022-11-24T22:58:54.817Z,101126.97
2022-11-24T23:01:24.745Z,101124.13
2022-11-24T23:03:55.466Z,101123.72
2022-11-24T23:06:26.451Z,101136.22
2022-11-24T23:08:53.759Z,101133.38
2022-11-24T23:11:36.391Z,101123.34
2022-11-24T23:14:11.023Z,101126.25
2022-11-24T23:16:38.157Z,101134.63
2022-11-24T23:19:05.233Z,101135.25
2022-11-24T23:21:35.250Z,101129.13
2022-11-24T23:24:04.523Z,101127.31
2022-11-24T23:26:38.165Z,101130.78
2022-11-24T23:29:06.735Z,101132.41
2022-11-24T23:31:34.059Z,101126.69
2022-11-24T23:34:03.537Z,101123.03
2022-11-24T23:36:32.046Z,101127.13
2022-11-24T23:39:13.144Z,101114.84
2022-11-24T23:41:40.676Z,101125.28
2022-11-24T23:44:07.818Z,101131.84
2022-11-24T23:46:35.194Z,101130.41
2022-11-24T23:49:03.210Z,101132.44
2022-11-24T23:51:32.840Z,101131.22
2022-11-24T23:54:00.987Z,101135.53
2022-11-24T23:56:33.434Z,101133.50
2022-11-24T23:59:02.097Z,101132.66
